Time,TemperatureF,DewpointF,PressureIn,WindDirection,WindDirectionDegrees,WindSpeedMPH,WindSpeedGustMPH,Humidity,HourlyPrecipIn,Conditions,Clouds,dailyrainin,SolarRadiationWatts/m^2,SoftwareType,DateUTC
2013-04-24 00:02:00,60.0,-99.9,-100.00,North,350,2.0,5.0,-999,0.00,,,0.04,0.000000,,2013-04-24 10:02:00,
2013-04-24 00:13:00,60.0,-99.9,-100.00,North,350,2.0,5.0,-999,0.00,,,0.04,0.000000,,2013-04-24 10:13:00,
2013-04-24 00:42:00,60.0,-99.9,-100.00,NNW,348,1.0,6.0,-999,0.00,,,0.04,0.000000,,2013-04-24 10:42:00,
2013-04-24 00:53:00,60.0,-99.9,-100.00,NNW,348,1.0,6.0,-999,0.00,,,0.04,0.000000,,2013-04-24 10:53:00,
2013-04-24 01:03:00,60.0,-99.9,-100.00,NNW,348,1.0,6.0,-999,0.00,,,0.04,0.000000,,2013-04-24 11:03:00,
2013-04-24 01:12:00,60.0,-99.9,-100.00,NNW,348,1.0,6.0,-999,0.00,,,0.04,0.000000,,2013-04-24 11:12:00,
2013-04-24 01:22:00,60.0,-99.9,-100.00,NNW,348,1.0,6.0,-999,0.00,,,0.04,0.000000,,2013-04-24 11:22:00,
2013-04-24 01:43:00,59.0,-99.9,-100.00,North,8,2.0,6.0,-999,0.00,,,0.04,0.000000,,2013-04-24 11:43:00,
2013-04-24 01:53:00,59.0,-99.9,-100.00,North,8,2.0,6.0,-999,0.00,,,0.04,0.000000,,2013-04-24 11:53:00,
2013-04-24 02:02:00,59.0,-99.9,-100.00,North,8,2.0,6.0,-999,0.00,,,0.04,0.000000,,2013-04-24 12:02:00,
2013-04-24 02:12:00,59.0,-99.9,-100.00,North,8,2.0,6.0,-999,0.00,,,0.04,0.000000,,2013-04-24 12:12:00,
2013-04-24 02:22:00,59.0,-99.9,-100.00,North,8,2.0,6.0,-999,0.00,,,0.04,0.000000,,2013-04-24 12:22:00,
2013-04-24 02:43:00,57.0,-99.9,-100.00,North,4,3.0,7.0,-999,0.00,,,0.04,0.000000,,2013-04-24 12:43:00,
2013-04-24 02:52:00,57.0,-99.9,-100.00,North,4,3.0,7.0,-999,0.00,,,0.04,0.000000,,2013-04-24 12:52:00,
2013-04-24 03:02:00,57.0,-99.9,-100.00,North,4,3.0,7.0,-999,0.00,,,0.04,0.000000,,2013-04-24 13:02:00,
2013-04-24 03:12:00,57.0,-99.9,-100.00,North,4,3.0,7.0,-999,0.00,,,0.04,0.000000,,2013-04-24 13:12:00,
2013-04-24 03:22:00,57.0,-99.9,-100.00,North,4,3.0,7.0,-999,0.00,,,0.04,0.000000,,2013-04-24 13:22:00,
2013-04-24 04:42:00,57.0,-99.9,-100.00,North,356,2.0,6.0,-999,-99.99,,,0.05,0.000000,,2013-04-24 14:42:00,
2013-04-24 04:52:00,57.0,-99.9,-100.00,North,356,2.0,6.0,-999,-99.99,,,0.05,0.000000,,2013-04-24 14:52:00,
2013-04-24 05:02:00,57.0,-99.9,-100.00,North,356,2.0,6.0,-999,-99.99,,,0.05,0.000000,,2013-04-24 15:02:00,
2013-04-24 05:11:00,57.0,-99.9,-100.00,North,356,2.0,6.0,-999,-99.99,,,0.05,0.000000,,2013-04-24 15:11:00,
2013-04-24 05:22:00,57.0,-99.9,-100.00,North,356,2.0,6.0,-999,-99.99,,,0.05,0.000000,,2013-04-24 15:22:00,
2013-04-24 05:23:00,53.0,-99.9,-100.00,North,357,3.0,8.0,-999,0.00,,,0.05,0.000000,,2013-04-24 15:23:00,
2013-04-24 05:43:00,53.0,-99.9,-100.00,North,357,3.0,8.0,-999,0.00,,,0.05,0.000000,,2013-04-24 15:43:00,
2013-04-24 05:53:00,53.0,-99.9,-100.00,North,357,3.0,8.0,-999,0.00,,,0.05,0.000000,,2013-04-24 15:53:00,
2013-04-24 06:03:00,53.0,-99.9,-100.00,North,357,3.0,8.0,-999,0.00,,,0.05,0.000000,,2013-04-24 16:03:00,
2013-04-24 06:12:00,53.0,-99.9,-100.00,North,357,3.0,8.0,-999,0.00,,,0.05,0.000000,,2013-04-24 16:12:00,
2013-04-24 06:42:00,51.0,-99.9,-100.00,North,354,4.0,7.0,-999,0.00,,,0.05,0.000000,,2013-04-24 16:42:00,
2013-04-24 06:53:00,51.0,-99.9,-100.00,North,354,4.0,7.0,-999,0.00,,,0.05,0.000000,,2013-04-24 16:53:00,
2013-04-24 07:02:00,51.0,-99.9,-100.00,North,354,4.0,7.0,-999,0.00,,,0.05,0.000000,,2013-04-24 17:02:00,
2013-04-24 07:12:00,51.0,-99.9,-100.00,North,354,4.0,7.0,-999,0.00,,,0.05,0.000000,,2013-04-24 17:12:00,
2013-04-24 07:22:00,51.0,-99.9,-100.00,North,354,4.0,7.0,-999,0.00,,,0.05,0.000000,,2013-04-24 17:22:00,
2013-04-24 07:42:00,51.0,-99.9,-100.00,North,2,3.0,7.0,-999,0.00,,,0.05,36.000000,,2013-04-24 17:42:00,
2013-04-24 07:52:00,51.0,-99.9,-100.00,North,2,3.0,7.0,-999,0.00,,,0.05,36.000000,,2013-04-24 17:52:00,
2013-04-24 08:02:00,51.0,-99.9,-100.00,North,2,3.0,7.0,-999,0.00,,,0.05,36.000000,,2013-04-24 18:02:00,
2013-04-24 08:12:00,51.0,-99.9,-100.00,North,2,3.0,7.0,-999,0.00,,,0.05,36.000000,,2013-04-24 18:12:00,
2013-04-24 08:22:00,51.0,-99.9,-100.00,North,2,3.0,7.0,-999,0.00,,,0.05,36.000000,,2013-04-24 18:22:00,
2013-04-24 08:43:00,57.0,-99.9,-100.00,North,6,3.0,9.0,-999,0.00,,,0.05,141.000000,,2013-04-24 18:43:00,
2013-04-24 08:52:00,57.0,-99.9,-100.00,North,6,3.0,9.0,-999,0.00,,,0.05,141.000000,,2013-04-24 18:52:00,
2013-04-24 09:02:00,57.0,-99.9,-100.00,North,6,3.0,9.0,-999,0.00,,,0.05,141.000000,,2013-04-24 19:02:00,
2013-04-24 09:12:00,57.0,-99.9,-100.00,North,6,3.0,9.0,-999,0.00,,,0.05,141.000000,,2013-04-24 19:12:00,
2013-04-24 09:22:00,57.0,-99.9,-100.00,North,6,3.0,9.0,-999,0.00,,,0.05,141.000000,,2013-04-24 19:22:00,
2013-04-24 09:42:00,62.0,57.0,-100.00,NNE,19,3.0,12.0,85,0.00,,,-99.99,285.000000,,2013-04-24 19:42:00,
2013-04-24 09:52:00,62.0,57.0,-100.00,NNE,19,3.0,12.0,85,0.00,,,-99.99,285.000000,,2013-04-24 19:52:00,
2013-04-24 10:01:00,62.0,57.0,-100.00,NNE,19,3.0,12.0,85,0.00,,,-99.99,285.000000,,2013-04-24 20:01:00,
2013-04-24 10:11:00,62.0,57.0,-100.00,NNE,19,3.0,12.0,85,0.00,,,-99.99,285.000000,,2013-04-24 20:11:00,
2013-04-24 10:21:00,62.0,57.0,-100.00,NNE,19,3.0,12.0,85,0.00,,,-99.99,285.000000,,2013-04-24 20:21:00,
2013-04-24 10:42:00,65.0,56.0,-100.00,NE,56,3.0,9.0,74,0.00,,,0.05,578.000000,,2013-04-24 20:42:00,
2013-04-24 10:52:00,65.0,56.0,-100.00,NE,56,3.0,9.0,74,0.00,,,0.05,578.000000,,2013-04-24 20:52:00,
2013-04-24 11:02:00,65.0,56.0,-100.00,NE,56,3.0,9.0,74,0.00,,,0.05,578.000000,,2013-04-24 21:02:00,
2013-04-24 11:11:00,65.0,56.0,-100.00,NE,56,3.0,9.0,74,0.00,,,0.05,578.000000,,2013-04-24 21:11:00,
2013-04-24 11:21:00,65.0,56.0,-100.00,NE,56,3.0,9.0,74,0.00,,,0.05,578.000000,,2013-04-24 21:21:00,
2013-04-24 11:42:00,68.0,58.0,-100.00,ENE,64,3.0,12.0,70,0.00,,,0.05,742.000000,,2013-04-24 21:42:00,
2013-04-24 11:52:00,68.0,58.0,-100.00,ENE,64,3.0,12.0,70,0.00,,,0.05,742.000000,,2013-04-24 21:52:00,
2013-04-24 12:03:00,68.0,58.0,-100.00,ENE,64,3.0,12.0,70,0.00,,,0.05,742.000000,,2013-04-24 22:03:00,
2013-04-24 12:12:00,68.0,58.0,-100.00,ENE,64,3.0,12.0,70,0.00,,,0.05,742.000000,,2013-04-24 22:12:00,
2013-04-24 12:22:00,68.0,58.0,-100.00,ENE,64,3.0,12.0,70,0.00,,,0.05,742.000000,,2013-04-24 22:22:00,
2013-04-24 12:42:00,70.0,59.0,-100.00,East,87,3.0,13.0,67,0.00,,,0.05,632.000000,,2013-04-24 22:42:00,
2013-04-24 12:52:00,70.0,59.0,-100.00,East,87,3.0,13.0,67,0.00,,,0.05,632.000000,,2013-04-24 22:52:00,
2013-04-24 13:02:00,70.0,59.0,-100.00,East,87,3.0,13.0,67,0.00,,,0.05,632.000000,,2013-04-24 23:02:00,
2013-04-24 13:12:00,70.0,59.0,-100.00,East,87,3.0,13.0,67,0.00,,,0.05,632.000000,,2013-04-24 23:12:00,
2013-04-24 13:21:00,70.0,59.0,-100.00,East,87,3.0,13.0,67,0.00,,,0.05,632.000000,,2013-04-24 23:21:00,
2013-04-24 13:42:00,71.0,61.0,-100.00,ESE,109,3.0,14.0,71,0.00,,,0.05,842.000000,,2013-04-24 23:42:00,
2013-04-24 13:52:00,71.0,61.0,-100.00,ESE,109,3.0,14.0,71,0.00,,,0.05,842.000000,,2013-04-24 23:52:00,
2013-04-24 14:01:00,71.0,61.0,-100.00,ESE,109,3.0,14.0,71,0.00,,,0.05,842.000000,,2013-04-25 00:01:00,
2013-04-24 14:12:00,71.0,61.0,-100.00,ESE,109,3.0,14.0,71,0.00,,,0.05,842.000000,,2013-04-25 00:12:00,
2013-04-24 14:22:00,71.0,61.0,-100.00,ESE,109,3.0,14.0,71,0.00,,,0.05,842.000000,,2013-04-25 00:22:00,
2013-04-24 14:42:00,68.0,62.0,-100.00,ESE,114,4.0,14.0,80,0.00,,,0.05,615.000000,,2013-04-25 00:42:00,
2013-04-24 14:52:00,68.0,62.0,-100.00,ESE,114,4.0,14.0,80,0.00,,,0.05,615.000000,,2013-04-25 00:52:00,
2013-04-24 15:01:00,68.0,62.0,-100.00,ESE,114,4.0,14.0,80,0.00,,,0.05,615.000000,,2013-04-25 01:01:00,
2013-04-24 15:11:00,68.0,62.0,-100.00,ESE,114,4.0,14.0,80,0.00,,,0.05,615.000000,,2013-04-25 01:11:00,
2013-04-24 15:22:00,68.0,62.0,-100.00,ESE,114,4.0,14.0,80,0.00,,,0.05,615.000000,,2013-04-25 01:22:00,
2013-04-24 15:42:00,66.0,57.0,-100.00,East,84,4.0,13.0,74,0.00,,,0.05,547.000000,,2013-04-25 01:42:00,
2013-04-24 15:52:00,66.0,57.0,-100.00,East,84,4.0,13.0,74,0.00,,,0.05,547.000000,,2013-04-25 01:52:00,
2013-04-24 16:01:00,66.0,57.0,-100.00,East,84,4.0,13.0,74,0.00,,,0.05,547.000000,,2013-04-25 02:01:00,
2013-04-24 16:11:00,66.0,57.0,-100.00,East,84,4.0,13.0,74,0.00,,,0.05,547.000000,,2013-04-25 02:11:00,
2013-04-24 16:22:00,66.0,57.0,-100.00,East,84,4.0,13.0,74,0.00,,,0.05,547.000000,,2013-04-25 02:22:00,
2013-04-24 17:02:00,66.0,60.0,-100.00,NE,49,4.0,12.0,82,0.00,,,0.04,386.000000,,2013-04-25 03:02:00,
2013-04-24 17:11:00,66.0,60.0,-100.00,NE,49,4.0,12.0,82,0.00,,,0.04,386.000000,,2013-04-25 03:11:00,
2013-04-24 17:21:00,66.0,60.0,-100.00,NE,49,4.0,12.0,82,0.00,,,0.04,386.000000,,2013-04-25 03:21:00,
2013-04-24 17:43:00,65.0,58.0,-100.00,NE,36,3.0,12.0,78,0.00,,,0.03,188.000000,,2013-04-25 03:43:00,
2013-04-24 17:52:00,65.0,58.0,-100.00,NE,36,3.0,12.0,78,0.00,,,0.03,188.000000,,2013-04-25 03:52:00,
2013-04-24 18:03:00,65.0,58.0,-100.00,NE,36,3.0,12.0,78,0.00,,,0.03,188.000000,,2013-04-25 04:03:00,
2013-04-24 18:12:00,65.0,58.0,-100.00,NE,36,3.0,12.0,78,0.00,,,0.03,188.000000,,2013-04-25 04:12:00,
2013-04-24 18:22:00,65.0,58.0,-100.00,NE,36,3.0,12.0,78,0.00,,,0.03,188.000000,,2013-04-25 04:22:00,
2013-04-24 18:43:00,65.0,62.0,-100.00,NE,46,2.0,9.0,90,0.00,,,0.02,166.000000,,2013-04-25 04:43:00,
2013-04-24 18:52:00,65.0,62.0,-100.00,NE,46,2.0,9.0,90,0.00,,,0.02,166.000000,,2013-04-25 04:52:00,
2013-04-24 19:02:00,65.0,62.0,-100.00,NE,46,2.0,9.0,90,0.00,,,0.02,166.000000,,2013-04-25 05:02:00,
2013-04-24 19:12:00,65.0,62.0,-100.00,NE,46,2.0,9.0,90,0.00,,,0.02,166.000000,,2013-04-25 05:12:00,
2013-04-24 19:21:00,65.0,62.0,-100.00,NE,46,2.0,9.0,90,0.00,,,0.02,166.000000,,2013-04-25 05:21:00,
2013-04-24 19:43:00,62.0,-99.9,-100.00,North,356,2.0,8.0,-999,0.00,,,0.02,8.000000,,2013-04-25 05:43:00,
2013-04-24 19:52:00,62.0,-99.9,-100.00,North,356,2.0,8.0,-999,0.00,,,0.02,8.000000,,2013-04-25 05:52:00,
2013-04-24 20:02:00,62.0,-99.9,-100.00,North,356,2.0,8.0,-999,0.00,,,0.02,8.000000,,2013-04-25 06:02:00,
2013-04-24 20:12:00,62.0,-99.9,-100.00,North,356,2.0,8.0,-999,0.00,,,0.02,8.000000,,2013-04-25 06:12:00,
2013-04-24 20:22:00,62.0,-99.9,-100.00,North,356,2.0,8.0,-999,0.00,,,0.02,8.000000,,2013-04-25 06:22:00,
2013-04-24 20:42:00,62.0,-99.9,-100.00,NNE,23,2.0,6.0,-999,0.03,,,0.04,1.000000,,2013-04-25 06:42:00,
2013-04-24 20:52:00,62.0,-99.9,-100.00,NNE,23,2.0,6.0,-999,0.03,,,0.04,1.000000,,2013-04-25 06:52:00,
2013-04-24 21:02:00,62.0,-99.9,-100.00,NNE,23,2.0,6.0,-999,0.03,,,0.04,1.000000,,2013-04-25 07:02:00,
2013-04-24 21:12:00,62.0,-99.9,-100.00,NNE,23,2.0,6.0,-999,0.03,,,0.04,1.000000,,2013-04-25 07:12:00,
2013-04-24 21:22:00,62.0,-99.9,-100.00,NNE,23,2.0,6.0,-999,0.03,,,0.04,1.000000,,2013-04-25 07:22:00,
2013-04-24 21:42:00,61.0,-99.9,-100.00,NNE,27,2.0,8.0,-999,0.01,,,0.05,1.000000,,2013-04-25 07:42:00,
2013-04-24 21:53:00,61.0,-99.9,-100.00,NNE,27,2.0,8.0,-999,0.01,,,0.05,1.000000,,2013-04-25 07:53:00,
2013-04-24 22:02:00,61.0,-99.9,-100.00,NNE,27,2.0,8.0,-999,0.01,,,0.05,1.000000,,2013-04-25 08:02:00,
2013-04-24 22:11:00,61.0,-99.9,-100.00,NNE,27,2.0,8.0,-999,0.01,,,0.05,1.000000,,2013-04-25 08:11:00,
2013-04-24 22:22:00,61.0,-99.9,-100.00,NNE,27,2.0,8.0,-999,0.01,,,0.05,1.000000,,2013-04-25 08:22:00,
2013-04-24 22:42:00,60.0,-99.9,-100.00,NNE,13,2.0,8.0,-999,0.00,,,0.05,1.000000,,2013-04-25 08:42:00,
2013-04-24 22:52:00,60.0,-99.9,-100.00,NNE,13,2.0,8.0,-999,0.00,,,0.05,1.000000,,2013-04-25 08:52:00,
2013-04-24 23:01:00,60.0,-99.9,-100.00,NNE,13,2.0,8.0,-999,0.00,,,0.05,1.000000,,2013-04-25 09:01:00,
2013-04-24 23:11:00,60.0,-99.9,-100.00,NNE,13,2.0,8.0,-999,0.00,,,0.05,1.000000,,2013-04-25 09:11:00,
2013-04-24 23:22:00,60.0,-99.9,-100.00,NNE,13,2.0,8.0,-999,0.00,,,0.05,1.000000,,2013-04-25 09:22:00,
2013-04-24 23:42:00,59.0,-99.9,-100.00,North,0,2.0,6.0,-999,0.00,,,0.05,1.000000,,2013-04-25 09:42:00,
2013-04-24 23:53:00,59.0,-99.9,-100.00,North,0,2.0,6.0,-999,0.00,,,0.05,1.000000,,2013-04-25 09:53:00,